sensor_id;sensor_type;location;lat;lon;timestamp;P1;durP1;ratioP1;P2;durP2;ratioP2
36321;SDS011;23564;48.290;11.460;2022-11-12T00:00:06;53.13;;;8.82;;
36321;SDS011;23564;48.290;11.460;2022-11-12T00:02:32;24.60;;;8.23;;
36321;SDS011;23564;48.290;11.460;2022-11-12T00:04:57;74.25;;;11.95;;
36321;SDS011;23564;48.290;11.460;2022-11-12T00:07:23;79.43;;;10.13;;
36321;SDS011;23564;48.290;11.460;2022-11-12T00:09:48;23.88;;;7.55;;
36321;SDS011;23564;48.290;11.460;2022-11-12T00:12:14;34.83;;;9.77;;
36321;SDS011;23564;48.290;11.460;2022-11-12T00:14:39;61.20;;;10.88;;
36321;SDS011;23564;48.290;11.460;2022-11-12T00:17:05;51.95;;;10.10;;
36321;SDS011;23564;48.290;11.460;2022-11-12T00:19:30;45.35;;;9.60;;
36321;SDS011;23564;48.290;11.460;2022-11-12T00:21:56;45.17;;;11.98;;
36321;SDS011;23564;48.290;11.460;2022-11-12T00:24:21;47.15;;;9.82;;
36321;SDS011;23564;48.290;11.460;2022-11-12T00:26:47;13.93;;;8.48;;
36321;SDS011;23564;48.290;11.460;2022-11-12T00:29:12;24.48;;;8.38;;
36321;SDS011;23564;48.290;11.460;2022-11-12T00:31:38;31.00;;;10.45;;
36321;SDS011;23564;48.290;11.460;2022-11-12T00:34:03;33.40;;;9.25;;
36321;SDS011;23564;48.290;11.460;2022-11-12T00:36:29;18.20;;;8.75;;
36321;SDS011;23564;48.290;11.460;2022-11-12T00:38:55;31.75;;;9.88;;
36321;SDS011;23564;48.290;11.460;2022-11-12T00:41:20;32.28;;;9.52;;
36321;SDS011;23564;48.290;11.460;2022-11-12T00:43:46;28.92;;;9.75;;
36321;SDS011;23564;48.290;11.460;2022-11-12T00:46:11;35.67;;;8.35;;
36321;SDS011;23564;48.290;11.460;2022-11-12T00:48:37;35.80;;;8.98;;
36321;SDS011;23564;48.290;11.460;2022-11-12T00:51:03;38.50;;;8.40;;
36321;SDS011;23564;48.290;11.460;2022-11-12T00:53:30;13.73;;;7.07;;
36321;SDS011;23564;48.290;11.460;2022-11-12T00:56:00;32.65;;;8.07;;
36321;SDS011;23564;48.290;11.460;2022-11-12T00:58:30;20.38;;;8.15;;
36321;SDS011;23564;48.290;11.460;2022-11-12T01:00:57;14.07;;;7.15;;
36321;SDS011;23564;48.290;11.460;2022-11-12T01:03:22;17.92;;;6.78;;
36321;SDS011;23564;48.290;11.460;2022-11-12T01:05:51;9.13;;;6.80;;
36321;SDS011;23564;48.290;11.460;2022-11-12T01:08:16;26.35;;;7.95;;
36321;SDS011;23564;48.290;11.460;2022-11-12T01:10:42;25.98;;;6.80;;
36321;SDS011;23564;48.290;11.460;2022-11-12T01:13:07;90.63;;;9.25;;
36321;SDS011;23564;48.290;11.460;2022-11-12T01:15:33;96.32;;;10.13;;
36321;SDS011;23564;48.290;11.460;2022-11-12T01:18:03;118.43;;;9.20;;
36321;SDS011;23564;48.290;11.460;2022-11-12T01:20:29;89.75;;;10.00;;
36321;SDS011;23564;48.290;11.460;2022-11-12T01:22:54;116.20;;;10.05;;
36321;SDS011;23564;48.290;11.460;2022-11-12T01:25:20;22.13;;;6.85;;
36321;SDS011;23564;48.290;11.460;2022-11-12T01:27:45;43.50;;;7.50;;
36321;SDS011;23564;48.290;11.460;2022-11-12T01:30:11;29.10;;;7.47;;
36321;SDS011;23564;48.290;11.460;2022-11-12T01:32:37;43.58;;;7.80;;
36321;SDS011;23564;48.290;11.460;2022-11-12T01:35:02;58.67;;;8.10;;
36321;SDS011;23564;48.290;11.460;2022-11-12T01:37:28;20.33;;;6.38;;
36321;SDS011;23564;48.290;11.460;2022-11-12T01:39:54;33.22;;;6.95;;
36321;SDS011;23564;48.290;11.460;2022-11-12T01:42:19;18.38;;;6.72;;
36321;SDS011;23564;48.290;11.460;2022-11-12T01:44:50;65.63;;;9.15;;
36321;SDS011;23564;48.290;11.460;2022-11-12T01:49:43;10.55;;;6.75;;
36321;SDS011;23564;48.290;11.460;2022-11-12T01:52:15;32.22;;;7.60;;
36321;SDS011;23564;48.290;11.460;2022-11-12T01:54:48;46.17;;;8.00;;
36321;SDS011;23564;48.290;11.460;2022-11-12T01:57:22;33.08;;;7.75;;
36321;SDS011;23564;48.290;11.460;2022-11-12T02:00:00;42.75;;;8.10;;
36321;SDS011;23564;48.290;11.460;2022-11-12T02:02:29;22.50;;;6.90;;
36321;SDS011;23564;48.290;11.460;2022-11-12T02:04:55;38.58;;;7.45;;
36321;SDS011;23564;48.290;11.460;2022-11-12T02:07:22;42.97;;;8.15;;
36321;SDS011;23564;48.290;11.460;2022-11-12T02:09:49;29.77;;;7.05;;
36321;SDS011;23564;48.290;11.460;2022-11-12T02:12:16;28.30;;;7.53;;
36321;SDS011;23564;48.290;11.460;2022-11-12T02:15:01;18.88;;;6.88;;
36321;SDS011;23564;48.290;11.460;2022-11-12T02:17:27;41.15;;;7.82;;
36321;SDS011;23564;48.290;11.460;2022-11-12T02:19:53;13.43;;;6.50;;
36321;SDS011;23564;48.290;11.460;2022-11-12T02:22:23;25.83;;;7.15;;
36321;SDS011;23564;48.290;11.460;2022-11-12T02:24:49;15.57;;;7.18;;
36321;SDS011;23564;48.290;11.460;2022-11-12T02:27:14;14.18;;;6.75;;
36321;SDS011;23564;48.290;11.460;2022-11-12T02:29:40;13.73;;;6.75;;
36321;SDS011;23564;48.290;11.460;2022-11-12T02:32:11;17.20;;;6.20;;
36321;SDS011;23564;48.290;11.460;2022-11-12T02:34:39;27.88;;;7.20;;
36321;SDS011;23564;48.290;11.460;2022-11-12T02:37:05;26.63;;;7.13;;
36321;SDS011;23564;48.290;11.460;2022-11-12T02:39:31;27.15;;;6.82;;
36321;SDS011;23564;48.290;11.460;2022-11-12T02:41:57;20.60;;;6.32;;
36321;SDS011;23564;48.290;11.460;2022-11-12T02:44:23;11.60;;;6.45;;
36321;SDS011;23564;48.290;11.460;2022-11-12T02:46:48;15.65;;;6.13;;
36321;SDS011;23564;48.290;11.460;2022-11-12T02:49:14;13.63;;;6.97;;
36321;SDS011;23564;48.290;11.460;2022-11-12T02:51:40;25.23;;;6.70;;
36321;SDS011;23564;48.290;11.460;2022-11-12T02:54:05;12.68;;;6.72;;
36321;SDS011;23564;48.290;11.460;2022-11-12T02:56:31;22.90;;;6.68;;
36321;SDS011;23564;48.290;11.460;2022-11-12T02:58:56;10.50;;;5.93;;
36321;SDS011;23564;48.290;11.460;2022-11-12T03:01:22;16.98;;;6.25;;
36321;SDS011;23564;48.290;11.460;2022-11-12T03:03:48;11.30;;;6.30;;
36321;SDS011;23564;48.290;11.460;2022-11-12T03:06:13;10.43;;;6.70;;
36321;SDS011;23564;48.290;11.460;2022-11-12T03:08:39;11.52;;;5.70;;
36321;SDS011;23564;48.290;11.460;2022-11-12T03:11:08;16.80;;;7.07;;
36321;SDS011;23564;48.290;11.460;2022-11-12T03:13:36;8.20;;;5.72;;
36321;SDS011;23564;48.290;11.460;2022-11-12T03:16:02;12.10;;;6.80;;
36321;SDS011;23564;48.290;11.460;2022-11-12T03:18:28;11.18;;;6.80;;
36321;SDS011;23564;48.290;11.460;2022-11-12T03:20:53;12.85;;;6.55;;
36321;SDS011;23564;48.290;11.460;2022-11-12T03:23:19;11.32;;;6.28;;
36321;SDS011;23564;48.290;11.460;2022-11-12T03:25:44;12.02;;;6.25;;
36321;SDS011;23564;48.290;11.460;2022-11-12T03:28:11;23.63;;;6.90;;
36321;SDS011;23564;48.290;11.460;2022-11-12T03:30:39;10.50;;;6.85;;
36321;SDS011;23564;48.290;11.460;2022-11-12T03:33:07;8.32;;;5.63;;
36321;SDS011;23564;48.290;11.460;2022-11-12T03:35:34;6.43;;;4.88;;
36321;SDS011;23564;48.290;11.460;2022-11-12T03:38:00;8.88;;;5.20;;
36321;SDS011;23564;48.290;11.460;2022-11-12T03:40:26;7.72;;;4.85;;
36321;SDS011;23564;48.290;11.460;2022-11-12T03:42:53;7.55;;;5.95;;
36321;SDS011;23564;48.290;11.460;2022-11-12T03:45:19;8.02;;;5.40;;
36321;SDS011;23564;48.290;11.460;2022-11-12T03:47:47;10.20;;;5.70;;
36321;SDS011;23564;48.290;11.460;2022-11-12T03:50:14;21.73;;;6.88;;
36321;SDS011;23564;48.290;11.460;2022-11-12T03:52:44;33.38;;;6.72;;
36321;SDS011;23564;48.290;11.460;2022-11-12T03:55:12;33.83;;;6.97;;
36321;SDS011;23564;48.290;11.460;2022-11-12T03:57:38;38.03;;;6.38;;
36321;SDS011;23564;48.290;11.460;2022-11-12T04:00:05;39.35;;;6.60;;
36321;SDS011;23564;48.290;11.460;2022-11-12T04:02:31;86.57;;;9.10;;
36321;SDS011;23564;48.290;11.460;2022-11-12T04:04:57;127.95;;;10.10;;
36321;SDS011;23564;48.290;11.460;2022-11-12T04:07:41;14.82;;;5.22;;
36321;SDS011;23564;48.290;11.460;2022-11-12T04:10:25;48.03;;;7.50;;
36321;SDS011;23564;48.290;11.460;2022-11-12T04:12:53;12.60;;;6.10;;
36321;SDS011;23564;48.290;11.460;2022-11-12T04:15:38;27.33;;;5.57;;
36321;SDS011;23564;48.290;11.460;2022-11-12T04:18:03;37.63;;;6.95;;
36321;SDS011;23564;48.290;11.460;2022-11-12T04:20:48;13.73;;;6.07;;
36321;SDS011;23564;48.290;11.460;2022-11-12T04:23:32;14.25;;;6.22;;
36321;SDS011;23564;48.290;11.460;2022-11-12T04:25:58;50.75;;;6.70;;
36321;SDS011;23564;48.290;11.460;2022-11-12T04:28:42;48.20;;;6.60;;
36321;SDS011;23564;48.290;11.460;2022-11-12T04:31:26;42.97;;;7.75;;
36321;SDS011;23564;48.290;11.460;2022-11-12T04:33:51;45.25;;;6.68;;
36321;SDS011;23564;48.290;11.460;2022-11-12T04:36:17;43.67;;;7.22;;
36321;SDS011;23564;48.290;11.460;2022-11-12T04:38:42;48.03;;;7.50;;
36321;SDS011;23564;48.290;11.460;2022-11-12T04:41:08;43.88;;;7.57;;
36321;SDS011;23564;48.290;11.460;2022-11-12T04:43:52;19.83;;;6.10;;
36321;SDS011;23564;48.290;11.460;2022-11-12T04:46:36;55.97;;;6.82;;
36321;SDS011;23564;48.290;11.460;2022-11-12T04:49:01;40.13;;;6.43;;
36321;SDS011;23564;48.290;11.460;2022-11-12T04:51:27;78.03;;;8.63;;
36321;SDS011;23564;48.290;11.460;2022-11-12T04:54:11;68.07;;;7.93;;
36321;SDS011;23564;48.290;11.460;2022-11-12T04:56:37;48.65;;;8.18;;
36321;SDS011;23564;48.290;11.460;2022-11-12T04:59:02;91.32;;;9.00;;
36321;SDS011;23564;48.290;11.460;2022-11-12T05:01:28;45.15;;;6.82;;
36321;SDS011;23564;48.290;11.460;2022-11-12T05:03:53;116.00;;;9.48;;
36321;SDS011;23564;48.290;11.460;2022-11-12T05:06:19;203.90;;;12.18;;
36321;SDS011;23564;48.290;11.460;2022-11-12T05:09:03;36.25;;;6.72;;
36321;SDS011;23564;48.290;11.460;2022-11-12T05:11:28;129.98;;;10.25;;
36321;SDS011;23564;48.290;11.460;2022-11-12T05:13:54;41.92;;;7.15;;
36321;SDS011;23564;48.290;11.460;2022-11-12T05:16:19;27.55;;;6.90;;
36321;SDS011;23564;48.290;11.460;2022-11-12T05:18:45;79.63;;;7.80;;
36321;SDS011;23564;48.290;11.460;2022-11-12T05:21:10;19.23;;;5.18;;
36321;SDS011;23564;48.290;11.460;2022-11-12T05:23:55;67.82;;;7.55;;
36321;SDS011;23564;48.290;11.460;2022-11-12T05:26:20;67.55;;;7.90;;
36321;SDS011;23564;48.290;11.460;2022-11-12T05:28:46;74.10;;;7.93;;
36321;SDS011;23564;48.290;11.460;2022-11-12T05:31:11;12.63;;;4.97;;
36321;SDS011;23564;48.290;11.460;2022-11-12T05:33:37;37.65;;;5.47;;
36321;SDS011;23564;48.290;11.460;2022-11-12T05:36:02;10.63;;;4.20;;
36321;SDS011;23564;48.290;11.460;2022-11-12T05:38:28;9.85;;;4.50;;
36321;SDS011;23564;48.290;11.460;2022-11-12T05:40:53;16.65;;;4.63;;
36321;SDS011;23564;48.290;11.460;2022-11-12T05:43:19;16.42;;;4.65;;
36321;SDS011;23564;48.290;11.460;2022-11-12T05:45:44;53.33;;;5.70;;
36321;SDS011;23564;48.290;11.460;2022-11-12T05:48:10;28.95;;;4.70;;
36321;SDS011;23564;48.290;11.460;2022-11-12T05:50:36;15.73;;;4.78;;
36321;SDS011;23564;48.290;11.460;2022-11-12T05:53:01;17.83;;;4.38;;
36321;SDS011;23564;48.290;11.460;2022-11-12T05:55:27;13.65;;;4.32;;
36321;SDS011;23564;48.290;11.460;2022-11-12T05:57:52;15.68;;;4.20;;
36321;SDS011;23564;48.290;11.460;2022-11-12T06:00:18;13.13;;;4.35;;
36321;SDS011;23564;48.290;11.460;2022-11-12T06:02:44;7.57;;;4.22;;
36321;SDS011;23564;48.290;11.460;2022-11-12T06:05:09;24.50;;;5.97;;
36321;SDS011;23564;48.290;11.460;2022-11-12T06:07:35;11.70;;;4.30;;
36321;SDS011;23564;48.290;11.460;2022-11-12T06:10:00;11.68;;;4.28;;
36321;SDS011;23564;48.290;11.460;2022-11-12T06:12:26;6.75;;;3.78;;
36321;SDS011;23564;48.290;11.460;2022-11-12T06:14:51;29.60;;;5.18;;
36321;SDS011;23564;48.290;11.460;2022-11-12T06:17:17;25.40;;;5.50;;
36321;SDS011;23564;48.290;11.460;2022-11-12T06:19:43;10.32;;;4.28;;
36321;SDS011;23564;48.290;11.460;2022-11-12T06:22:08;15.02;;;4.72;;
36321;SDS011;23564;48.290;11.460;2022-11-12T06:24:34;28.83;;;5.00;;
36321;SDS011;23564;48.290;11.460;2022-11-12T06:26:59;31.05;;;4.65;;
36321;SDS011;23564;48.290;11.460;2022-11-12T06:29:25;38.15;;;6.38;;
36321;SDS011;23564;48.290;11.460;2022-11-12T06:31:50;35.65;;;6.00;;
36321;SDS011;23564;48.290;11.460;2022-11-12T06:34:16;31.80;;;6.13;;
36321;SDS011;23564;48.290;11.460;2022-11-12T06:36:41;32.45;;;6.72;;
36321;SDS011;23564;48.290;11.460;2022-11-12T06:39:09;34.85;;;6.22;;
36321;SDS011;23564;48.290;11.460;2022-11-12T06:41:35;25.35;;;5.93;;
36321;SDS011;23564;48.290;11.460;2022-11-12T06:44:02;29.60;;;6.47;;
36321;SDS011;23564;48.290;11.460;2022-11-12T06:46:28;46.88;;;7.93;;
36321;SDS011;23564;48.290;11.460;2022-11-12T06:48:54;24.17;;;7.05;;
36321;SDS011;23564;48.290;11.460;2022-11-12T06:51:20;22.10;;;8.20;;
36321;SDS011;23564;48.290;11.460;2022-11-12T06:53:46;27.70;;;7.43;;
36321;SDS011;23564;48.290;11.460;2022-11-12T06:56:12;15.90;;;6.70;;
36321;SDS011;23564;48.290;11.460;2022-11-12T06:58:38;14.23;;;6.22;;
36321;SDS011;23564;48.290;11.460;2022-11-12T07:01:05;12.75;;;6.68;;
36321;SDS011;23564;48.290;11.460;2022-11-12T07:03:35;51.28;;;7.00;;
36321;SDS011;23564;48.290;11.460;2022-11-12T07:06:04;34.05;;;7.03;;
36321;SDS011;23564;48.290;11.460;2022-11-12T07:08:31;15.10;;;6.32;;
36321;SDS011;23564;48.290;11.460;2022-11-12T07:10:57;18.25;;;6.57;;
36321;SDS011;23564;48.290;11.460;2022-11-12T07:13:23;24.55;;;8.45;;
36321;SDS011;23564;48.290;11.460;2022-11-12T07:15:49;56.58;;;8.40;;
36321;SDS011;23564;48.290;11.460;2022-11-12T07:18:14;25.02;;;6.80;;
36321;SDS011;23564;48.290;11.460;2022-11-12T07:20:40;24.23;;;7.57;;
36321;SDS011;23564;48.290;11.460;2022-11-12T07:23:05;24.38;;;6.95;;
36321;SDS011;23564;48.290;11.460;2022-11-12T07:25:31;20.75;;;6.72;;
36321;SDS011;23564;48.290;11.460;2022-11-12T07:27:56;18.60;;;5.60;;
36321;SDS011;23564;48.290;11.460;2022-11-12T07:30:22;15.63;;;5.85;;
36321;SDS011;23564;48.290;11.460;2022-11-12T07:32:47;14.32;;;6.10;;
36321;SDS011;23564;48.290;11.460;2022-11-12T07:35:13;34.72;;;6.80;;
36321;SDS011;23564;48.290;11.460;2022-11-12T07:37:39;41.78;;;9.27;;
36321;SDS011;23564;48.290;11.460;2022-11-12T07:40:04;19.05;;;7.05;;
36321;SDS011;23564;48.290;11.460;2022-11-12T07:42:34;18.73;;;7.18;;
36321;SDS011;23564;48.290;11.460;2022-11-12T07:44:59;68.20;;;10.65;;
36321;SDS011;23564;48.290;11.460;2022-11-12T07:47:25;68.25;;;10.70;;
36321;SDS011;23564;48.290;11.460;2022-11-12T07:49:51;70.47;;;10.35;;
36321;SDS011;23564;48.290;11.460;2022-11-12T07:52:17;17.70;;;8.07;;
36321;SDS011;23564;48.290;11.460;2022-11-12T07:54:42;68.25;;;13.35;;
36321;SDS011;23564;48.290;11.460;2022-11-12T07:57:08;77.32;;;14.85;;
36321;SDS011;23564;48.290;11.460;2022-11-12T07:59:33;82.68;;;11.05;;
36321;SDS011;23564;48.290;11.460;2022-11-12T08:01:59;55.03;;;10.45;;
36321;SDS011;23564;48.290;11.460;2022-11-12T08:04:24;50.65;;;10.43;;
36321;SDS011;23564;48.290;11.460;2022-11-12T08:06:50;34.95;;;10.52;;
36321;SDS011;23564;48.290;11.460;2022-11-12T08:09:16;83.00;;;11.73;;
36321;SDS011;23564;48.290;11.460;2022-11-12T08:11:42;51.20;;;10.60;;
36321;SDS011;23564;48.290;11.460;2022-11-12T08:14:07;46.25;;;10.18;;
36321;SDS011;23564;48.290;11.460;2022-11-12T08:16:33;33.05;;;8.30;;
36321;SDS011;23564;48.290;11.460;2022-11-12T08:18:59;53.75;;;8.48;;
36321;SDS011;23564;48.290;11.460;2022-11-12T08:21:25;10.85;;;6.18;;
36321;SDS011;23564;48.290;11.460;2022-11-12T08:23:51;13.25;;;5.65;;
36321;SDS011;23564;48.290;11.460;2022-11-12T08:26:17;52.90;;;8.50;;
36321;SDS011;23564;48.290;11.460;2022-11-12T08:28:44;12.15;;;6.18;;
36321;SDS011;23564;48.290;11.460;2022-11-12T08:31:18;48.40;;;8.70;;
36321;SDS011;23564;48.290;11.460;2022-11-12T08:33:45;45.88;;;8.77;;
36321;SDS011;23564;48.290;11.460;2022-11-12T08:36:11;44.70;;;9.93;;
36321;SDS011;23564;48.290;11.460;2022-11-12T08:38:39;24.75;;;8.15;;
36321;SDS011;23564;48.290;11.460;2022-11-12T08:41:06;22.75;;;8.48;;
36321;SDS011;23564;48.290;11.460;2022-11-12T08:43:34;41.25;;;8.35;;
36321;SDS011;23564;48.290;11.460;2022-11-12T08:46:00;42.72;;;8.95;;
36321;SDS011;23564;48.290;11.460;2022-11-12T08:48:27;20.90;;;7.13;;
36321;SDS011;23564;48.290;11.460;2022-11-12T08:50:53;66.20;;;8.85;;
36321;SDS011;23564;48.290;11.460;2022-11-12T08:53:19;27.02;;;8.70;;
36321;SDS011;23564;48.290;11.460;2022-11-12T08:55:46;23.15;;;7.75;;
36321;SDS011;23564;48.290;11.460;2022-11-12T08:58:12;56.25;;;8.68;;
36321;SDS011;23564;48.290;11.460;2022-11-12T09:00:39;34.33;;;7.85;;
36321;SDS011;23564;48.290;11.460;2022-11-12T09:03:07;25.77;;;6.80;;
36321;SDS011;23564;48.290;11.460;2022-11-12T09:05:37;34.55;;;8.00;;
36321;SDS011;23564;48.290;11.460;2022-11-12T09:08:04;14.20;;;6.32;;
36321;SDS011;23564;48.290;11.460;2022-11-12T09:10:31;61.60;;;8.35;;
36321;SDS011;23564;48.290;11.460;2022-11-12T09:12:57;14.82;;;6.13;;
36321;SDS011;23564;48.290;11.460;2022-11-12T09:15:23;45.85;;;7.68;;
36321;SDS011;23564;48.290;11.460;2022-11-12T09:17:59;36.17;;;7.20;;
36321;SDS011;23564;48.290;11.460;2022-11-12T09:20:26;27.75;;;7.18;;
36321;SDS011;23564;48.290;11.460;2022-11-12T09:22:52;23.10;;;7.15;;
36321;SDS011;23564;48.290;11.460;2022-11-12T09:25:22;33.53;;;7.78;;
36321;SDS011;23564;48.290;11.460;2022-11-12T09:27:47;24.77;;;7.35;;
36321;SDS011;23564;48.290;11.460;2022-11-12T09:30:13;47.42;;;8.68;;
36321;SDS011;23564;48.290;11.460;2022-11-12T09:32:39;14.60;;;6.78;;
36321;SDS011;23564;48.290;11.460;2022-11-12T09:35:04;9.07;;;6.13;;
36321;SDS011;23564;48.290;11.460;2022-11-12T09:37:30;9.52;;;6.85;;
36321;SDS011;23564;48.290;11.460;2022-11-12T09:39:56;19.17;;;6.68;;
36321;SDS011;23564;48.290;11.460;2022-11-12T09:42:21;47.08;;;7.90;;
36321;SDS011;23564;48.290;11.460;2022-11-12T09:44:54;24.73;;;7.20;;
36321;SDS011;23564;48.290;11.460;2022-11-12T09:47:25;25.38;;;7.63;;
36321;SDS011;23564;48.290;11.460;2022-11-12T09:50:25;12.73;;;7.05;;
36321;SDS011;23564;48.290;11.460;2022-11-12T09:52:59;27.85;;;7.43;;
36321;SDS011;23564;48.290;11.460;2022-11-12T09:55:45;49.40;;;9.80;;
36321;SDS011;23564;48.290;11.460;2022-11-12T09:58:14;67.35;;;9.45;;
36321;SDS011;23564;48.290;11.460;2022-11-12T10:01:05;126.65;;;12.32;;
36321;SDS011;23564;48.290;11.460;2022-11-12T10:03:37;71.90;;;10.23;;
36321;SDS011;23564;48.290;11.460;2022-11-12T10:06:22;52.20;;;9.60;;
36321;SDS011;23564;48.290;11.460;2022-11-12T10:08:56;41.70;;;9.38;;
36321;SDS011;23564;48.290;11.460;2022-11-12T10:17:52;12.45;;;7.45;;
36321;SDS011;23564;48.290;11.460;2022-11-12T10:20:38;17.95;;;7.90;;
36321;SDS011;23564;48.290;11.460;2022-11-12T10:23:16;18.60;;;7.72;;
36321;SDS011;23564;48.290;11.460;2022-11-12T10:25:46;15.88;;;7.38;;
36321;SDS011;23564;48.290;11.460;2022-11-12T10:28:23;54.67;;;9.32;;
36321;SDS011;23564;48.290;11.460;2022-11-12T10:30:51;30.65;;;8.40;;
36321;SDS011;23564;48.290;11.460;2022-11-12T10:33:19;20.15;;;7.82;;
36321;SDS011;23564;48.290;11.460;2022-11-12T10:35:45;17.33;;;9.50;;
36321;SDS011;23564;48.290;11.460;2022-11-12T10:38:11;18.17;;;8.50;;
36321;SDS011;23564;48.290;11.460;2022-11-12T10:40:51;12.43;;;7.43;;
36321;SDS011;23564;48.290;11.460;2022-11-12T10:45:43;19.80;;;7.53;;
36321;SDS011;23564;48.290;11.460;2022-11-12T10:48:26;11.98;;;7.47;;
36321;SDS011;23564;48.290;11.460;2022-11-12T10:50:56;33.80;;;7.10;;
36321;SDS011;23564;48.290;11.460;2022-11-12T10:53:34;14.00;;;6.78;;
36321;SDS011;23564;48.290;11.460;2022-11-12T10:56:03;12.00;;;6.57;;
36321;SDS011;23564;48.290;11.460;2022-11-12T10:59:34;12.30;;;7.07;;
36321;SDS011;23564;48.290;11.460;2022-11-12T11:01:43;20.08;;;7.65;;
36321;SDS011;23564;48.290;11.460;2022-11-12T11:04:18;9.57;;;7.00;;
36321;SDS011;23564;48.290;11.460;2022-11-12T11:06:59;9.52;;;6.07;;
36321;SDS011;23564;48.290;11.460;2022-11-12T11:09:25;19.73;;;7.38;;
36321;SDS011;23564;48.290;11.460;2022-11-12T11:11:51;13.70;;;6.47;;
36321;SDS011;23564;48.290;11.460;2022-11-12T11:16:50;12.73;;;6.35;;
36321;SDS011;23564;48.290;11.460;2022-11-12T11:19:17;11.90;;;7.18;;
36321;SDS011;23564;48.290;11.460;2022-11-12T11:40:23;12.27;;;7.40;;
36321;SDS011;23564;48.290;11.460;2022-11-12T11:53:43;9.27;;;6.47;;
36321;SDS011;23564;48.290;11.460;2022-11-12T11:56:25;9.80;;;6.05;;
36321;SDS011;23564;48.290;11.460;2022-11-12T12:10:04;10.93;;;6.93;;
36321;SDS011;23564;48.290;11.460;2022-11-12T12:13:05;9.40;;;6.50;;
36321;SDS011;23564;48.290;11.460;2022-11-12T12:21:01;10.18;;;7.35;;
36321;SDS011;23564;48.290;11.460;2022-11-12T12:23:44;10.65;;;7.43;;
36321;SDS011;23564;48.290;11.460;2022-11-12T12:29:05;12.68;;;7.63;;
36321;SDS011;23564;48.290;11.460;2022-11-12T12:31:39;11.20;;;8.05;;
36321;SDS011;23564;48.290;11.460;2022-11-12T12:34:18;10.05;;;7.68;;
36321;SDS011;23564;48.290;11.460;2022-11-12T12:36:45;10.85;;;8.13;;
36321;SDS011;23564;48.290;11.460;2022-11-12T12:39:24;9.75;;;7.55;;
36321;SDS011;23564;48.290;11.460;2022-11-12T12:41:55;11.00;;;8.13;;
36321;SDS011;23564;48.290;11.460;2022-11-12T12:44:24;13.30;;;8.20;;
36321;SDS011;23564;48.290;11.460;2022-11-12T12:47:14;9.93;;;6.80;;
36321;SDS011;23564;48.290;11.460;2022-11-12T12:49:42;10.25;;;7.43;;
36321;SDS011;23564;48.290;11.460;2022-11-12T12:52:11;11.07;;;7.78;;
36321;SDS011;23564;48.290;11.460;2022-11-12T12:57:24;10.18;;;8.07;;
36321;SDS011;23564;48.290;11.460;2022-11-12T13:02:52;12.07;;;8.02;;
36321;SDS011;23564;48.290;11.460;2022-11-12T13:05:22;14.70;;;10.15;;
36321;SDS011;23564;48.290;11.460;2022-11-12T13:07:56;14.23;;;9.95;;
36321;SDS011;23564;48.290;11.460;2022-11-12T13:13:39;13.77;;;9.13;;
36321;SDS011;23564;48.290;11.460;2022-11-12T13:15:59;15.50;;;9.85;;
36321;SDS011;23564;48.290;11.460;2022-11-12T13:21:10;18.17;;;10.77;;
36321;SDS011;23564;48.290;11.460;2022-11-12T13:23:44;17.73;;;11.02;;
36321;SDS011;23564;48.290;11.460;2022-11-12T13:26:43;19.27;;;11.32;;
36321;SDS011;23564;48.290;11.460;2022-11-12T13:29:16;18.40;;;12.38;;
36321;SDS011;23564;48.290;11.460;2022-11-12T13:31:44;16.58;;;11.48;;
36321;SDS011;23564;48.290;11.460;2022-11-12T13:34:16;18.73;;;11.38;;
36321;SDS011;23564;48.290;11.460;2022-11-12T13:36:54;19.05;;;12.07;;
36321;SDS011;23564;48.290;11.460;2022-11-12T13:39:26;19.25;;;11.55;;
36321;SDS011;23564;48.290;11.460;2022-11-12T13:41:56;20.63;;;12.52;;
36321;SDS011;23564;48.290;11.460;2022-11-12T13:44:44;19.52;;;11.13;;
36321;SDS011;23564;48.290;11.460;2022-11-12T13:47:15;20.33;;;11.38;;
36321;SDS011;23564;48.290;11.460;2022-11-12T13:49:45;20.05;;;11.65;;
36321;SDS011;23564;48.290;11.460;2022-11-12T13:52:15;21.88;;;13.00;;
36321;SDS011;23564;48.290;11.460;2022-11-12T13:54:43;25.77;;;14.25;;
36321;SDS011;23564;48.290;11.460;2022-11-12T13:59:51;21.40;;;13.23;;
36321;SDS011;23564;48.290;11.460;2022-11-12T14:03:02;20.70;;;12.70;;
36321;SDS011;23564;48.290;11.460;2022-11-12T14:05:30;24.23;;;13.55;;
36321;SDS011;23564;48.290;11.460;2022-11-12T14:13:41;22.38;;;13.93;;
36321;SDS011;23564;48.290;11.460;2022-11-12T14:16:41;22.13;;;12.70;;
36321;SDS011;23564;48.290;11.460;2022-11-12T14:21:32;19.25;;;12.50;;
36321;SDS011;23564;48.290;11.460;2022-11-12T14:23:59;25.35;;;13.77;;
36321;SDS011;23564;48.290;11.460;2022-11-12T14:26:37;21.08;;;13.43;;
36321;SDS011;23564;48.290;11.460;2022-11-12T14:29:04;22.30;;;14.43;;
36321;SDS011;23564;48.290;11.460;2022-11-12T14:31:30;20.52;;;13.57;;
36321;SDS011;23564;48.290;11.460;2022-11-12T14:33:56;30.52;;;15.25;;
36321;SDS011;23564;48.290;11.460;2022-11-12T14:36:41;25.92;;;15.82;;
36321;SDS011;23564;48.290;11.460;2022-11-12T14:39:08;29.80;;;15.82;;
36321;SDS011;23564;48.290;11.460;2022-11-12T14:41:36;51.25;;;17.25;;
36321;SDS011;23564;48.290;11.460;2022-11-12T14:44:09;122.47;;;18.37;;
36321;SDS011;23564;48.290;11.460;2022-11-12T14:46:52;37.10;;;16.33;;
36321;SDS011;23564;48.290;11.460;2022-11-12T14:49:21;59.40;;;16.52;;
36321;SDS011;23564;48.290;11.460;2022-11-12T14:51:56;47.38;;;15.45;;
36321;SDS011;23564;48.290;11.460;2022-11-12T14:54:42;29.63;;;14.63;;
36321;SDS011;23564;48.290;11.460;2022-11-12T14:57:22;47.05;;;17.50;;
36321;SDS011;23564;48.290;11.460;2022-11-12T14:59:55;33.40;;;16.85;;
36321;SDS011;23564;48.290;11.460;2022-11-12T15:02:25;39.38;;;16.70;;
36321;SDS011;23564;48.290;11.460;2022-11-12T15:05:13;28.17;;;14.98;;
36321;SDS011;23564;48.290;11.460;2022-11-12T15:10:27;144.70;;;21.67;;
36321;SDS011;23564;48.290;11.460;2022-11-12T15:13:05;142.13;;;22.15;;
36321;SDS011;23564;48.290;11.460;2022-11-12T15:15:32;49.10;;;18.42;;
36321;SDS011;23564;48.290;11.460;2022-11-12T15:18:00;50.45;;;18.80;;
36321;SDS011;23564;48.290;11.460;2022-11-12T15:20:28;37.67;;;18.80;;
36321;SDS011;23564;48.290;11.460;2022-11-12T15:22:54;50.72;;;20.52;;
36321;SDS011;23564;48.290;11.460;2022-11-12T15:25:28;79.07;;;20.20;;
36321;SDS011;23564;48.290;11.460;2022-11-12T15:27:54;46.22;;;18.33;;
36321;SDS011;23564;48.290;11.460;2022-11-12T15:30:22;32.50;;;16.75;;
36321;SDS011;23564;48.290;11.460;2022-11-12T15:32:48;93.28;;;20.75;;
36321;SDS011;23564;48.290;11.460;2022-11-12T15:35:34;157.00;;;22.58;;
36321;SDS011;23564;48.290;11.460;2022-11-12T15:38:06;48.75;;;18.05;;
36321;SDS011;23564;48.290;11.460;2022-11-12T15:40:47;139.13;;;19.30;;
36321;SDS011;23564;48.290;11.460;2022-11-12T15:43:20;178.70;;;21.85;;
36321;SDS011;23564;48.290;11.460;2022-11-12T15:45:48;220.93;;;25.65;;
36321;SDS011;23564;48.290;11.460;2022-11-12T15:48:17;188.63;;;22.80;;
36321;SDS011;23564;48.290;11.460;2022-11-12T15:50:43;139.48;;;22.92;;
36321;SDS011;23564;48.290;11.460;2022-11-12T15:53:09;181.70;;;23.23;;
36321;SDS011;23564;48.290;11.460;2022-11-12T15:55:35;45.83;;;17.45;;
36321;SDS011;23564;48.290;11.460;2022-11-12T15:58:02;203.35;;;24.25;;